Time;durP1;ratioP1;P1;durP2;ratioP2;P2;SDS_P1;SDS_P2;PMS_P1;PMS_P2;Temp;Humidity;BMP_temperature;BMP_pressure;BME280_temperature;BME280_humidity;BME280_pressure;Samples;Min_cycle;Max_cycle;Signal;HPM_P1;HPM_P2
2023/12/21 00:00:43;;;;;;;7.10;1.40;;;10.50;99.90;;;;;;4961917;28;20114;-64
2023/12/21 00:03:10;;;;;;;7.25;1.90;;;10.50;99.90;;;;;;4955117;29;20047;-60
2023/12/21 00:05:37;;;;;;;6.85;1.52;;;10.60;99.90;;;;;;4953963;29;20543;-60
2023/12/21 00:08:04;;;;;;;8.13;2.28;;;10.50;99.90;;;;;;4955144;29;20039;-61
2023/12/21 00:10:30;;;;;;;9.10;2.35;;;10.60;99.90;;;;;;4954961;29;20044;-61
2023/12/21 00:12:57;;;;;;;6.78;1.90;;;10.50;99.90;;;;;;4955208;29;20083;-60
2023/12/21 00:15:24;;;;;;;6.05;1.67;;;10.60;99.90;;;;;;4955051;29;20051;-62
2023/12/21 00:17:51;;;;;;;7.65;1.88;;;10.60;99.90;;;;;;4955338;29;20051;-61
2023/12/21 00:20:20;;;;;;;8.63;2.10;;;10.60;99.90;;;;;;4955312;29;20052;-61
2023/12/21 00:22:47;;;;;;;8.18;1.73;;;10.50;99.90;;;;;;4955361;29;20430;-60
2023/12/21 00:25:14;;;;;;;7.38;1.98;;;10.50;99.90;;;;;;4955119;29;20376;-60
2023/12/21 00:27:41;;;;;;;9.90;1.75;;;10.50;99.90;;;;;;4953450;29;20083;-61
2023/12/21 00:30:08;;;;;;;6.60;1.58;;;10.50;99.90;;;;;;4955256;29;20060;-60
2023/12/21 00:32:34;;;;;;;6.05;1.63;;;10.50;99.90;;;;;;4954845;29;20074;-61
2023/12/21 00:35:01;;;;;;;9.88;2.10;;;10.50;99.90;;;;;;4954803;29;20062;-61
2023/12/21 00:37:30;;;;;;;9.95;1.90;;;10.40;99.90;;;;;;4954811;29;20134;-61
2023/12/21 00:39:57;;;;;;;10.48;2.45;;;10.40;99.90;;;;;;4954739;29;20039;-61
2023/12/21 00:42:23;;;;;;;7.10;1.73;;;10.40;99.90;;;;;;4956869;28;20043;-61
2023/12/21 00:44:50;;;;;;;6.95;1.50;;;10.40;99.90;;;;;;4958459;29;20468;-61
2023/12/21 00:47:17;;;;;;;11.63;1.85;;;10.40;99.90;;;;;;4958131;29;20043;-60
2023/12/21 00:49:44;;;;;;;9.15;1.92;;;10.40;99.90;;;;;;4958612;28;20043;-61
2023/12/21 00:52:11;;;;;;;7.13;1.85;;;10.40;99.90;;;;;;4958478;29;20052;-60
2023/12/21 00:54:38;;;;;;;9.15;2.03;;;10.40;99.90;;;;;;4957354;29;20396;-60
2023/12/21 00:57:05;;;;;;;10.18;2.38;;;10.40;99.90;;;;;;4958168;29;20444;-61
2023/12/21 00:59:34;;;;;;;6.80;1.70;;;10.40;99.90;;;;;;4958413;29;20039;-61
2023/12/21 01:02:02;;;;;;;10.23;1.80;;;10.40;99.90;;;;;;4958151;29;20083;-60
2023/12/21 01:04:29;;;;;;;7.43;2.13;;;10.40;99.90;;;;;;4957995;29;20070;-60
2023/12/21 01:06:56;;;;;;;7.97;1.63;;;10.40;99.90;;;;;;4958240;29;20503;-61
2023/12/21 01:09:23;;;;;;;7.00;1.70;;;10.50;99.90;;;;;;4958044;29;20067;-61
2023/12/21 01:11:49;;;;;;;7.72;2.00;;;10.40;99.90;;;;;;4956894;29;20500;-62
2023/12/21 01:14:16;;;;;;;7.43;1.58;;;10.40;99.90;;;;;;4957773;29;20170;-60
2023/12/21 01:16:43;;;;;;;8.13;2.13;;;10.50;99.90;;;;;;4957747;29;20039;-62
2023/12/21 01:19:10;;;;;;;8.20;2.20;;;10.50;99.90;;;;;;4957862;29;20047;-58
2023/12/21 01:21:37;;;;;;;5.72;1.75;;;10.50;99.90;;;;;;4956831;29;20044;-58
2023/12/21 01:24:04;;;;;;;6.22;1.63;;;10.50;99.90;;;;;;4957677;28;20047;-57
2023/12/21 01:26:31;;;;;;;8.27;1.90;;;10.50;99.90;;;;;;4956154;29;20074;-57
2023/12/21 01:28:58;;;;;;;6.32;1.60;;;10.60;99.90;;;;;;4957434;29;20067;-57
2023/12/21 01:31:25;;;;;;;6.45;2.00;;;10.60;99.90;;;;;;4956132;29;20381;-57
2023/12/21 01:33:52;;;;;;;6.28;1.70;;;10.70;99.90;;;;;;4957299;29;20412;-56
2023/12/21 01:36:19;;;;;;;7.65;1.80;;;10.60;99.90;;;;;;4957002;29;20059;-56
2023/12/21 01:38:45;;;;;;;9.45;1.80;;;10.60;99.90;;;;;;4956213;29;20530;-58
2023/12/21 01:41:12;;;;;;;7.82;1.60;;;10.60;99.90;;;;;;4957584;29;20408;-57
2023/12/21 01:43:39;;;;;;;7.20;1.83;;;10.60;99.90;;;;;;4956372;29;20127;-56
2023/12/21 01:46:06;;;;;;;8.93;1.60;;;10.70;99.90;;;;;;4957199;29;20536;-58
2023/12/21 01:48:33;;;;;;;7.78;1.70;;;10.70;99.90;;;;;;4956770;29;20122;-55
2023/12/21 01:51:00;;;;;;;4.45;1.33;;;10.70;99.90;;;;;;4957295;29;20122;-57
2023/12/21 01:53:27;;;;;;;6.85;1.63;;;10.70;99.90;;;;;;4956500;28;20043;-58
2023/12/21 01:55:53;;;;;;;6.25;1.55;;;10.80;99.90;;;;;;4957119;29;20467;-57
2023/12/21 01:58:20;;;;;;;7.05;1.48;;;10.80;99.90;;;;;;4957196;29;20046;-57
2023/12/21 02:00:47;;;;;;;5.82;1.30;;;10.80;99.90;;;;;;4957289;29;20054;-57
2023/12/21 02:03:14;;;;;;;5.70;1.20;;;10.80;99.90;;;;;;4957320;29;20043;-55
2023/12/21 02:05:41;;;;;;;5.20;1.90;;;10.90;99.90;;;;;;4955732;29;20082;-56
2023/12/21 02:08:08;;;;;;;7.20;1.75;;;10.90;99.90;;;;;;4956587;29;20480;-60
2023/12/21 02:10:39;;;;;;;3.75;1.10;;;10.90;99.90;;;;;;4957176;29;20527;-60
2023/12/21 02:13:06;;;;;;;4.93;1.30;;;10.90;99.90;;;;;;4957069;29;20126;-60
2023/12/21 02:15:33;;;;;;;5.07;1.50;;;10.90;99.90;;;;;;4955434;29;20043;-60
2023/12/21 02:17:59;;;;;;;5.35;1.15;;;10.90;99.90;;;;;;4956980;29;20464;-60
2023/12/21 02:20:26;;;;;;;5.30;1.10;;;11.00;99.90;;;;;;4956780;29;20047;-62
2023/12/21 02:22:53;;;;;;;4.97;1.30;;;11.00;99.90;;;;;;4956697;29;20048;-60
2023/12/21 02:25:20;;;;;;;4.32;1.00;;;11.00;99.90;;;;;;4956844;29;20134;-60
2023/12/21 02:27:47;;;;;;;3.47;1.00;;;11.00;99.90;;;;;;4956725;29;20130;-61
2023/12/21 02:30:14;;;;;;;3.53;1.10;;;11.00;99.90;;;;;;4956699;29;20039;-60
2023/12/21 02:32:41;;;;;;;6.78;1.33;;;11.10;99.90;;;;;;4956624;29;20043;-60
2023/12/21 02:35:07;;;;;;;5.18;1.20;;;11.10;99.90;;;;;;4956356;29;20078;-60
2023/12/21 02:37:34;;;;;;;3.60;1.20;;;11.10;99.90;;;;;;4956763;29;20072;-58
2023/12/21 02:40:01;;;;;;;4.30;1.10;;;11.10;99.90;;;;;;4956670;29;20440;-59
2023/12/21 02:42:28;;;;;;;4.78;1.15;;;11.10;99.90;;;;;;4956633;29;20480;-61
2023/12/21 02:44:55;;;;;;;4.65;1.10;;;11.20;99.90;;;;;;4956379;29;20044;-60
2023/12/21 02:47:21;;;;;;;3.78;0.80;;;11.20;99.90;;;;;;4956332;29;20426;-60
2023/12/21 02:49:48;;;;;;;4.03;0.90;;;11.20;99.90;;;;;;4956367;29;20047;-58
2023/12/21 02:52:18;;;;;;;3.17;0.80;;;11.20;99.90;;;;;;4956606;29;20397;-58
2023/12/21 02:54:45;;;;;;;3.92;0.98;;;11.20;99.90;;;;;;4956524;29;20043;-59
2023/12/21 02:57:12;;;;;;;3.88;0.88;;;11.10;99.90;;;;;;4955988;29;20456;-60
2023/12/21 02:59:39;;;;;;;3.80;1.02;;;11.20;99.90;;;;;;4955976;29;20388;-58
2023/12/21 03:02:05;;;;;;;3.63;1.10;;;11.20;99.90;;;;;;4956402;29;20459;-58
2023/12/21 03:04:32;;;;;;;3.55;0.90;;;11.20;99.90;;;;;;4955830;28;20380;-59
2023/12/21 03:06:59;;;;;;;2.50;0.70;;;11.10;99.90;;;;;;4955258;29;20078;-58
2023/12/21 03:09:26;;;;;;;4.72;1.00;;;11.20;99.90;;;;;;4955780;29;20054;-60
2023/12/21 03:11:53;;;;;;;2.83;0.70;;;11.20;99.90;;;;;;4955978;29;20044;-58
2023/12/21 03:14:22;;;;;;;2.58;0.75;;;11.10;99.90;;;;;;4955675;29;20172;-58
2023/12/21 03:16:49;;;;;;;3.97;0.80;;;11.10;99.90;;;;;;4955663;29;20507;-58
2023/12/21 03:19:16;;;;;;;2.67;0.80;;;11.20;99.90;;;;;;4955800;29;20397;-58
2023/12/21 03:21:43;;;;;;;2.70;0.90;;;11.20;99.90;;;;;;4955754;29;20078;-60
2023/12/21 03:24:09;;;;;;;2.60;0.80;;;11.20;99.90;;;;;;4955506;29;20046;-60
2023/12/21 03:26:36;;;;;;;3.13;1.00;;;11.20;99.90;;;;;;4955819;29;20058;-58
2023/12/21 03:29:03;;;;;;;3.85;0.80;;;11.20;99.90;;;;;;4955716;29;20065;-54
2023/12/21 03:31:30;;;;;;;4.63;0.90;;;11.20;99.90;;;;;;4955828;29;20046;-52
2023/12/21 03:33:57;;;;;;;1.80;0.60;;;11.30;99.90;;;;;;4954301;29;20071;-56
2023/12/21 03:36:27;;;;;;;5.47;1.13;;;11.30;99.90;;;;;;4955180;28;20063;-54
2023/12/21 03:38:54;;;;;;;3.97;0.90;;;11.20;99.90;;;;;;4954343;29;20075;-55
2023/12/21 03:41:21;;;;;;;5.85;1.00;;;11.30;99.90;;;;;;4955466;29;20071;-57
2023/12/21 03:43:48;;;;;;;1.52;0.52;;;11.30;99.90;;;;;;4955796;29;20058;-54
2023/12/21 03:46:14;;;;;;;2.90;0.80;;;11.30;99.90;;;;;;4955884;29;20070;-56
2023/12/21 03:48:41;;;;;;;2.58;0.85;;;11.30;99.90;;;;;;4955476;29;20122;-59
2023/12/21 03:51:08;;;;;;;2.60;0.80;;;11.30;99.90;;;;;;4955572;29;20039;-59
2023/12/21 03:53:35;;;;;;;4.18;1.20;;;11.30;99.90;;;;;;4955549;29;20043;-59
2023/12/21 03:56:01;;;;;;;2.25;0.80;;;11.30;99.90;;;;;;4954074;29;20046;-59
2023/12/21 03:58:28;;;;;;;3.60;0.90;;;11.30;99.90;;;;;;4955145;29;20118;-57
2023/12/21 04:00:55;;;;;;;3.13;1.00;;;11.30;99.90;;;;;;4955313;29;20043;-60
2023/12/21 04:03:22;;;;;;;3.13;0.90;;;11.30;99.90;;;;;;4955070;29;20129;-60
2023/12/21 04:05:49;;;;;;;3.13;1.00;;;11.30;99.90;;;;;;4955182;29;20046;-60
2023/12/21 04:08:21;;;;;;;2.67;0.93;;;11.30;99.90;;;;;;4953781;29;20504;-60
2023/12/21 04:10:48;;;;;;;4.10;0.60;;;11.30;99.90;;;;;;4955498;29;20043;-60
2023/12/21 04:13:14;;;;;;;3.95;0.73;;;11.30;99.90;;;;;;4955308;29;20044;-60
2023/12/21 04:15:41;;;;;;;4.20;1.02;;;11.30;99.90;;;;;;4955448;29;20515;-60
2023/12/21 04:18:09;;;;;;;4.20;1.67;;;11.30;99.90;;;;;;4956977;28;20043;-60
2023/12/21 04:20:36;;;;;;;2.72;0.88;;;11.30;99.90;;;;;;4958675;29;20481;-60
2023/12/21 04:23:02;;;;;;;3.40;0.90;;;11.30;99.90;;;;;;4958880;29;20083;-60
2023/12/21 04:25:29;;;;;;;2.75;0.80;;;11.30;99.90;;;;;;4958744;29;20039;-60
2023/12/21 04:27:56;;;;;;;4.53;0.80;;;11.30;99.90;;;;;;4958753;29;20074;-60
2023/12/21 04:30:23;;;;;;;2.80;0.88;;;11.30;99.90;;;;;;4959069;29;20078;-60
2023/12/21 04:32:50;;;;;;;2.88;0.77;;;11.30;99.90;;;;;;4958779;29;20043;-60
2023/12/21 04:35:17;;;;;;;3.35;0.90;;;11.30;99.90;;;;;;4958166;29;20090;-61
2023/12/21 04:37:44;;;;;;;4.07;0.90;;;11.30;99.90;;;;;;4958703;29;20388;-60
2023/12/21 04:40:11;;;;;;;4.63;1.10;;;11.30;99.90;;;;;;4958719;29;20047;-60
2023/12/21 04:42:38;;;;;;;4.70;0.90;;;11.30;99.90;;;;;;4958876;29;20114;-60
2023/12/21 04:45:04;;;;;;;2.58;0.80;;;11.30;99.90;;;;;;4957212;29;20051;-60
2023/12/21 04:47:31;;;;;;;3.25;0.80;;;11.30;99.90;;;;;;4957308;29;20448;-60
2023/12/21 04:49:58;;;;;;;5.72;1.00;;;11.30;99.90;;;;;;4958372;29;20059;-60
2023/12/21 04:52:25;;;;;;;4.25;0.80;;;11.30;99.90;;;;;;4958379;29;20397;-60
2023/12/21 04:54:52;;;;;;;4.65;1.02;;;11.30;99.90;;;;;;4958394;29;20379;-61
2023/12/21 04:57:19;;;;;;;3.38;1.00;;;11.20;99.90;;;;;;4941781;29;20054;-60
2023/12/21 04:59:47;;;;;;;5.15;0.80;;;11.20;99.90;;;;;;4958561;29;20051;-60
2023/12/21 05:02:14;;;;;;;3.90;0.85;;;11.30;99.90;;;;;;4957214;29;20102;-61
2023/12/21 05:04:40;;;;;;;4.68;0.95;;;11.20;99.90;;;;;;4958105;29;20043;-61
2023/12/21 05:07:10;;;;;;;3.80;1.35;;;11.20;99.90;;;;;;4958050;29;20047;-60
2023/12/21 05:09:37;;;;;;;5.28;1.00;;;11.20;99.90;;;;;;4958423;29;20400;-56
2023/12/21 05:12:04;;;;;;;5.30;0.82;;;11.20;99.90;;;;;;4958157;29;20425;-59
2023/12/21 05:14:31;;;;;;;2.92;1.00;;;11.20;99.90;;;;;;4958106;29;20043;-59
2023/12/21 05:16:57;;;;;;;2.53;1.00;;;11.20;99.90;;;;;;4958249;29;20472;-59
2023/12/21 05:19:24;;;;;;;3.88;1.00;;;11.20;99.90;;;;;;4957996;29;20564;-61
2023/12/21 05:21:52;;;;;;;4.63;1.00;;;11.20;99.90;;;;;;4957942;29;20039;-57
2023/12/21 05:24:18;;;;;;;1.92;0.80;;;11.10;99.90;;;;;;4958116;29;20047;-59
2023/12/21 05:26:45;;;;;;;3.35;0.93;;;11.10;99.90;;;;;;4957872;29;20047;-57
2023/12/21 05:29:12;;;;;;;4.40;0.88;;;11.20;99.90;;;;;;4955772;28;20043;-60
2023/12/21 05:31:39;;;;;;;4.55;1.17;;;11.20;99.90;;;;;;4957436;29;20039;-57
2023/12/21 05:34:06;;;;;;;2.58;0.68;;;11.20;99.90;;;;;;4957800;29;20039;-58
2023/12/21 05:36:33;;;;;;;4.35;0.88;;;11.20;99.90;;;;;;4957544;29;20511;-58
2023/12/21 05:38:59;;;;;;;1.85;0.57;;;11.10;99.90;;;;;;4956560;29;20043;-58
2023/12/21 05:41:26;;;;;;;3.45;0.80;;;11.20;99.90;;;;;;4957484;29;20070;-57
2023/12/21 05:43:53;;;;;;;2.70;0.77;;;11.10;99.90;;;;;;4957486;29;20043;-57
2023/12/21 05:46:20;;;;;;;2.80;0.85;;;11.20;99.90;;;;;;4957356;29;20098;-55
2023/12/21 05:48:47;;;;;;;1.83;0.60;;;11.20;99.90;;;;;;4957264;29;20369;-54
2023/12/21 05:51:14;;;;;;;3.42;0.73;;;11.20;99.90;;;;;;4957538;29;20040;-55
2023/12/21 05:53:41;;;;;;;3.17;0.90;;;11.20;99.90;;;;;;4956290;29;20090;-55
2023/12/21 05:56:08;;;;;;;1.67;0.50;;;11.20;99.90;;;;;;4957975;29;20443;-54
2023/12/21 05:58:35;;;;;;;1.90;0.52;;;11.20;99.90;;;;;;4957319;29;20476;-55
2023/12/21 06:01:01;;;;;;;1.52;0.63;;;11.30;99.90;;;;;;4957422;29;20039;-51
2023/12/21 06:03:28;;;;;;;3.88;0.80;;;11.20;99.90;;;;;;4957404;29;20049;-52
2023/12/21 06:05:55;;;;;;;4.07;1.50;;;11.20;99.90;;;;;;4957133;29;20130;-54
2023/12/21 06:08:23;;;;;;;4.18;1.30;;;11.20;99.90;;;;;;4957342;29;20045;-53
2023/12/21 06:10:49;;;;;;;2.80;0.80;;;11.30;99.90;;;;;;4957061;29;20174;-55
2023/12/21 06:13:16;;;;;;;2.47;0.75;;;11.20;99.90;;;;;;4955846;29;20059;-52
2023/12/21 06:15:43;;;;;;;2.63;0.70;;;11.30;99.90;;;;;;4957020;29;20432;-55
2023/12/21 06:18:10;;;;;;;3.10;1.05;;;11.20;99.90;;;;;;4956802;29;20071;-55
2023/12/21 06:20:38;;;;;;;2.92;0.60;;;11.20;99.90;;;;;;4957143;29;20432;-52
2023/12/21 06:23:05;;;;;;;3.67;0.95;;;11.20;99.90;;;;;;4956863;29;20428;-55
2023/12/21 06:25:32;;;;;;;3.08;0.60;;;11.30;99.90;;;;;;4957015;29;20071;-53
2023/12/21 06:28:02;;;;;;;4.13;0.88;;;11.20;99.90;;;;;;4956845;29;20128;-56
2023/12/21 06:30:29;;;;;;;2.85;0.70;;;11.20;99.90;;;;;;4956691;28;20051;-54
2023/12/21 06:32:56;;;;;;;4.95;1.08;;;11.20;99.90;;;;;;4956567;29;20043;-55
2023/12/21 06:35:23;;;;;;;1.95;0.60;;;11.10;99.90;;;;;;4956344;29;20059;-52
2023/12/21 06:37:50;;;;;;;3.35;0.80;;;11.10;99.90;;;;;;4956274;29;20039;-54
2023/12/21 06:40:17;;;;;;;2.17;0.75;;;11.20;99.90;;;;;;4955136;28;20066;-55
2023/12/21 06:42:44;;;;;;;2.55;0.88;;;11.20;99.90;;;;;;4955169;29;20079;-53
2023/12/21 06:45:11;;;;;;;4.00;1.15;;;11.20;99.90;;;;;;4956309;29;20090;-55
2023/12/21 06:47:39;;;;;;;3.33;0.60;;;11.20;99.90;;;;;;4954769;29;20817;-60
2023/12/21 06:50:06;;;;;;;3.33;0.80;;;11.20;99.90;;;;;;4956624;29;20056;-60
2023/12/21 06:52:33;;;;;;;3.20;0.85;;;11.20;99.90;;;;;;4956362;29;20054;-60
2023/12/21 06:55:00;;;;;;;4.90;1.70;;;11.20;99.90;;;;;;4956436;29;20468;-60
2023/12/21 06:57:28;;;;;;;3.20;0.80;;;11.20;99.90;;;;;;4956703;29;20055;-60
2023/12/21 06:59:55;;;;;;;4.07;1.15;;;11.20;99.90;;;;;;4956766;29;20043;-60
2023/12/21 07:02:21;;;;;;;3.22;0.90;;;11.30;99.90;;;;;;4955585;29;20365;-60
2023/12/21 07:04:48;;;;;;;4.75;0.88;;;11.30;99.90;;;;;;4956507;29;20051;-60
2023/12/21 07:07:15;;;;;;;3.55;0.85;;;11.30;99.90;;;;;;4956109;29;20043;-60
2023/12/21 07:09:42;;;;;;;4.13;0.80;;;11.30;99.90;;;;;;4956225;29;20051;-61
2023/12/21 07:12:09;;;;;;;6.25;0.95;;;11.30;99.90;;;;;;4955632;29;20039;-60
2023/12/21 07:14:35;;;;;;;3.83;0.88;;;11.40;99.90;;;;;;4955934;29;20044;-60
2023/12/21 07:17:02;;;;;;;3.50;1.10;;;11.40;99.90;;;;;;4954118;29;20491;-60
2023/12/21 07:19:29;;;;;;;4.00;0.90;;;11.40;99.90;;;;;;4955635;29;20377;-60
2023/12/21 07:21:56;;;;;;;5.93;1.20;;;11.50;99.90;;;;;;4954240;29;20078;-60
2023/12/21 07:24:23;;;;;;;4.30;1.00;;;11.50;99.90;;;;;;4954029;29;20468;-60
2023/12/21 07:26:49;;;;;;;4.13;1.00;;;11.40;99.90;;;;;;4955919;29;20043;-57
2023/12/21 07:29:17;;;;;;;3.55;0.90;;;11.40;99.90;;;;;;4955213;29;20503;-58
2023/12/21 07:31:44;;;;;;;6.80;1.88;;;11.50;99.90;;;;;;4954806;29;20072;-58
2023/12/21 07:34:10;;;;;;;4.05;0.73;;;11.50;99.90;;;;;;4955673;29;20090;-55
2023/12/21 07:36:38;;;;;;;6.75;1.23;;;11.60;99.90;;;;;;4955574;29;20480;-56
2023/12/21 07:39:04;;;;;;;5.70;0.98;;;11.60;99.90;;;;;;4955476;29;20087;-57
2023/12/21 07:41:31;;;;;;;4.63;0.98;;;11.70;99.90;;;;;;4955630;29;20047;-56
2023/12/21 07:43:58;;;;;;;4.95;1.13;;;11.80;99.90;;;;;;4955441;29;20392;-56
2023/12/21 07:46:25;;;;;;;5.85;1.35;;;11.80;99.90;;;;;;4955632;29;20404;-57
2023/12/21 07:48:52;;;;;;;6.72;1.15;;;11.80;99.90;;;;;;4954007;29;20102;-56
2023/12/21 07:51:19;;;;;;;6.10;1.38;;;11.90;99.90;;;;;;4956918;28;20106;-56
2023/12/21 07:53:45;;;;;;;4.60;1.27;;;11.90;99.90;;;;;;4974619;28;20034;-56
2023/12/21 07:56:12;;;;;;;5.13;1.48;;;12.00;99.90;;;;;;4974611;28;20387;-56
2023/12/21 07:58:39;;;;;;;4.65;1.25;;;12.00;99.90;;;;;;4974626;28;20444;-55
2023/12/21 08:01:06;;;;;;;6.32;1.98;;;12.00;99.90;;;;;;4974548;28;20069;-54
2023/12/21 08:03:33;;;;;;;8.50;2.63;;;12.00;99.90;;;;;;4974619;28;20039;-50
2023/12/21 08:06:00;;;;;;;8.45;1.60;;;12.10;99.90;;;;;;4974616;28;20046;-56
2023/12/21 08:08:27;;;;;;;6.35;1.55;;;12.10;99.90;;;;;;4974527;28;20121;-54
2023/12/21 08:10:54;;;;;;;4.55;1.30;;;12.10;99.90;;;;;;4974879;28;20065;-53
2023/12/21 08:13:20;;;;;;;6.82;1.48;;;12.10;99.90;;;;;;4974689;28;20039;-55
2023/12/21 08:15:47;;;;;;;3.83;1.05;;;12.10;99.90;;;;;;4974478;28;20047;-56
2023/12/21 08:18:14;;;;;;;3.80;1.23;;;12.10;99.90;;;;;;4974428;28;20061;-55
2023/12/21 08:20:42;;;;;;;7.85;1.35;;;12.10;99.90;;;;;;4974522;28;20094;-56
2023/12/21 08:23:09;;;;;;;5.40;1.17;;;12.10;99.90;;;;;;4974644;28;20050;-51
2023/12/21 08:25:36;;;;;;;6.20;1.23;;;12.10;99.90;;;;;;4974458;28;20047;-54
2023/12/21 08:28:03;;;;;;;3.65;1.02;;;12.10;99.90;;;;;;4973927;28;20043;-55
2023/12/21 08:30:30;;;;;;;7.57;1.55;;;12.00;99.90;;;;;;4974350;28;20043;-53
2023/12/21 08:32:57;;;;;;;4.30;1.38;;;12.00;99.90;;;;;;4974059;28;20049;-56
2023/12/21 08:35:24;;;;;;;4.93;1.40;;;12.00;99.90;;;;;;4973126;28;20050;-56
2023/12/21 08:37:51;;;;;;;3.78;1.00;;;12.00;99.90;;;;;;4973155;28;20051;-57
2023/12/21 08:40:18;;;;;;;5.85;1.33;;;11.90;99.90;;;;;;4974118;28;20130;-57
2023/12/21 08:42:44;;;;;;;5.65;1.00;;;11.90;99.90;;;;;;4973975;28;20082;-61
2023/12/21 08:45:12;;;;;;;6.03;1.05;;;11.90;99.90;;;;;;4974058;28;20066;-61
2023/12/21 08:47:40;;;;;;;5.40;1.08;;;11.90;99.90;;;;;;4974429;28;20380;-56
2023/12/21 08:50:08;;;;;;;6.32;1.30;;;11.90;99.90;;;;;;4972787;28;20043;-57
2023/12/21 08:52:36;;;;;;;5.22;1.10;;;11.90;99.90;;;;;;4974066;28;20053;-56
2023/12/21 08:55:04;;;;;;;5.28;1.10;;;12.00;99.90;;;;;;4973919;28;20121;-54
2023/12/21 08:57:32;;;;;;;4.25;1.02;;;12.00;99.90;;;;;;4974396;28;20054;-56
2023/12/21 09:00:03;;;;;;;5.03;1.23;;;12.00;99.90;;;;;;4974317;28;20065;-56
2023/12/21 09:02:30;;;;;;;4.32;1.02;;;12.00;99.90;;;;;;4974750;28;20102;-53
2023/12/21 09:04:57;;;;;;;6.43;1.10;;;12.00;99.90;;;;;;4977363;28;20486;-60
2023/12/21 09:07:24;;;;;;;6.68;1.10;;;12.00;99.90;;;;;;4976985;28;20102;-60
2023/12/21 09:09:51;;;;;;;4.30;1.02;;;12.00;99.90;;;;;;4977535;28;20043;-58
2023/12/21 09:12:21;;;;;;;5.03;1.42;;;12.00;99.90;;;;;;4977743;28;20500;-58
2023/12/21 09:14:48;;;;;;;4.57;1.20;;;12.00;99.90;;;;;;4977591;28;20043;-56
2023/12/21 09:17:14;;;;;;;4.82;1.10;;;12.00;99.90;;;;;;4961285;28;20451;-52
2023/12/21 09:19:43;;;;;;;4.25;1.10;;;12.00;99.90;;;;;;4957392;29;20060;-53
2023/12/21 09:22:10;;;;;;;4.28;1.20;;;12.00;99.90;;;;;;4972124;28;20043;-51
2023/12/21 09:24:36;;;;;;;6.40;1.25;;;12.00;99.90;;;;;;4976594;28;20051;-52
2023/12/21 09:27:03;;;;;;;4.55;1.30;;;12.00;99.90;;;;;;4974709;28;20159;-56
2023/12/21 09:29:30;;;;;;;3.67;1.10;;;12.10;99.90;;;;;;4976280;28;20551;-55
2023/12/21 09:31:57;;;;;;;6.47;1.30;;;12.10;99.90;;;;;;4976026;28;20053;-56
2023/12/21 09:34:24;;;;;;;4.93;1.15;;;12.10;99.90;;;;;;4976075;28;20396;-57
2023/12/21 09:36:52;;;;;;;4.03;1.40;;;12.10;99.90;;;;;;4975937;28;20042;-56
2023/12/21 09:39:19;;;;;;;4.70;1.17;;;12.10;99.90;;;;;;4976282;28;20054;-58
2023/12/21 09:41:46;;;;;;;6.30;1.25;;;12.10;99.90;;;;;;4976191;28;20055;-55
2023/12/21 09:44:25;;;;;;;4.63;1.02;;;12.10;99.90;;;;;;4976211;28;20050;-54
2023/12/21 09:46:55;;;;;;;3.92;0.70;;;12.10;99.90;;;;;;4975674;28;20492;-54
2023/12/21 09:49:22;;;;;;;6.85;1.10;;;12.10;99.90;;;;;;4975560;28;20078;-56
2023/12/21 09:51:48;;;;;;;4.50;1.00;;;12.10;99.90;;;;;;4975822;28;20064;-53
2023/12/21 09:54:16;;;;;;;4.20;1.20;;;12.10;99.90;;;;;;4976145;28;20039;-54
2023/12/21 09:56:42;;;;;;;4.50;1.40;;;12.10;99.90;;;;;;4975704;28;20039;-56
2023/12/21 09:59:10;;;;;;;4.63;1.33;;;12.10;99.90;;;;;;4975831;28;20121;-52
2023/12/21 10:01:37;;;;;;;6.53;1.25;;;12.00;99.90;;;;;;4975644;28;20039;-52
2023/12/21 10:04:04;;;;;;;7.80;1.30;;;12.00;99.90;;;;;;4975778;28;20451;-50
2023/12/21 10:06:30;;;;;;;7.53;1.30;;;11.90;99.90;;;;;;4975479;28;20404;-57
2023/12/21 10:08:57;;;;;;;6.43;1.67;;;11.90;99.90;;;;;;4975806;28;20053;-49
2023/12/21 10:11:24;;;;;;;5.00;1.50;;;11.80;99.90;;;;;;4975515;28;20039;-54
2023/12/21 10:13:55;;;;;;;7.05;1.58;;;11.70;99.90;;;;;;4975541;28;20509;-54
2023/12/21 10:16:21;;;;;;;10.23;2.60;;;11.70;99.90;;;;;;4974805;28;20488;-51
2023/12/21 10:18:50;;;;;;;6.45;1.65;;;11.70;99.90;;;;;;4974103;28;20054;-49
2023/12/21 10:21:17;;;;;;;5.65;1.52;;;11.70;99.90;;;;;;4975340;28;20047;-56
2023/12/21 10:23:44;;;;;;;6.07;1.30;;;11.70;99.90;;;;;;4975673;28;20057;-56
2023/12/21 10:26:10;;;;;;;6.07;2.05;;;11.80;99.90;;;;;;4975130;28;20039;-57
2023/12/21 10:28:39;;;;;;;5.35;1.60;;;11.80;99.90;;;;;;4975307;28;20081;-58
2023/12/21 10:31:08;;;;;;;5.60;1.27;;;11.80;99.90;;;;;;4956146;28;20039;-55
2023/12/21 10:33:35;;;;;;;5.45;1.45;;;11.80;99.90;;;;;;4956105;28;20477;-58
2023/12/21 10:36:03;;;;;;;5.88;1.52;;;11.90;99.90;;;;;;4972054;28;20444;-59
2023/12/21 10:38:31;;;;;;;3.97;1.23;;;11.90;99.90;;;;;;4975057;28;20053;-57
2023/12/21 10:41:05;;;;;;;4.78;1.20;;;12.00;99.90;;;;;;4974928;28;20055;-54
2023/12/21 10:43:32;;;;;;;5.95;1.23;;;12.00;99.90;;;;;;4975401;28;20051;-56
2023/12/21 10:45:58;;;;;;;3.58;1.00;;;12.10;99.90;;;;;;4974891;28;20121;-57
2023/12/21 10:48:25;;;;;;;2.72;0.93;;;12.10;99.90;;;;;;4974908;28;20086;-55
2023/12/21 10:50:52;;;;;;;4.25;0.85;;;12.10;99.90;;;;;;4974745;28;20118;-57
2023/12/21 10:53:21;;;;;;;2.97;0.90;;;12.20;99.90;;;;;;4975045;28;20043;-55
2023/12/21 10:55:48;;;;;;;3.05;0.68;;;12.20;99.90;;;;;;4974540;28;20046;-56
2023/12/21 10:58:15;;;;;;;4.00;1.27;;;12.20;99.90;;;;;;4975044;28;20049;-56
2023/12/21 11:00:43;;;;;;;2.13;1.02;;;12.30;99.90;;;;;;4974386;28;20049;-55
2023/12/21 11:03:12;;;;;;;3.50;1.10;;;12.30;99.90;;;;;;4974720;28;20093;-59
2023/12/21 11:05:40;;;;;;;3.00;1.00;;;12.30;99.90;;;;;;4974725;28;20101;-60
2023/12/21 11:08:07;;;;;;;4.32;1.20;;;12.30;99.90;;;;;;4975180;28;20133;-60
2023/12/21 11:10:34;;;;;;;4.07;0.80;;;12.40;99.90;;;;;;4974454;28;20039;-61
2023/12/21 11:13:01;;;;;;;5.68;1.27;;;12.40;99.90;;;;;;4974790;28;20050;-62
2023/12/21 11:15:28;;;;;;;4.13;1.10;;;12.50;99.90;;;;;;4974176;28;20039;-62
2023/12/21 11:17:55;;;;;;;5.70;1.10;;;12.50;99.90;;;;;;4974644;28;20039;-60
2023/12/21 11:20:22;;;;;;;4.03;1.45;;;12.50;99.90;;;;;;4974286;28;20090;-60
2023/12/21 11:23:01;;;;;;;3.10;1.10;;;12.50;99.90;;;;;;4974644;28;20049;-61
2023/12/21 11:25:28;;;;;;;4.07;1.00;;;12.50;99.90;;;;;;4972675;28;20041;-61
2023/12/21 11:27:55;;;;;;;3.80;1.20;;;12.50;99.90;;;;;;4973729;28;20526;-61
2023/12/21 11:30:22;;;;;;;2.45;0.80;;;12.50;99.90;;;;;;4974274;28;20038;-61
2023/12/21 11:32:49;;;;;;;3.63;1.02;;;12.50;99.90;;;;;;4973377;28;20117;-61
2023/12/21 11:35:16;;;;;;;2.30;0.82;;;12.50;99.90;;;;;;4973635;28;20043;-60
2023/12/21 11:37:43;;;;;;;1.48;0.60;;;12.60;99.90;;;;;;4973462;28;20042;-61
2023/12/21 11:40:11;;;;;;;2.40;0.93;;;12.70;99.90;;;;;;4973324;28;20507;-60
2023/12/21 11:42:38;;;;;;;2.45;0.60;;;12.80;99.90;;;;;;4974770;28;20105;-63
2023/12/21 11:45:07;;;;;;;3.67;0.70;;;12.90;99.90;;;;;;4973966;28;20053;-65
2023/12/21 11:47:34;;;;;;;2.38;0.80;;;12.90;99.90;;;;;;4973531;28;20068;-64
2023/12/21 11:50:01;;;;;;;5.05;0.90;;;13.00;99.90;;;;;;4973945;28;20043;-62
2023/12/21 11:52:28;;;;;;;14.25;5.93;;;13.10;99.90;;;;;;4974079;28;20345;-61
2023/12/21 11:54:55;;;;;;;3.22;1.20;;;13.10;99.90;;;;;;4973054;28;20462;-61
2023/12/21 11:57:22;;;;;;;3.30;1.33;;;13.10;99.90;;;;;;4973797;28;20101;-61
2023/12/21 11:59:51;;;;;;;2.95;0.65;;;13.20;99.90;;;;;;4973553;28;20093;-61
2023/12/21 12:02:18;;;;;;;3.35;0.98;;;13.20;99.90;;;;;;4973496;28;20369;-61
2023/12/21 12:04:45;;;;;;;3.45;0.70;;;13.20;99.90;;;;;;4973583;28;20066;-60
2023/12/21 12:07:12;;;;;;;4.60;0.90;;;13.30;99.90;;;;;;4973527;28;20105;-62
2023/12/21 12:09:39;;;;;;;4.00;0.73;;;13.30;99.90;;;;;;4972185;28;20126;-61
2023/12/21 12:12:07;;;;;;;2.60;0.80;;;13.30;99.90;;;;;;4973739;28;20043;-62
2023/12/21 12:14:34;;;;;;;2.78;0.80;;;13.40;99.90;;;;;;4973762;28;20047;-61
2023/12/21 12:17:01;;;;;;;2.88;0.88;;;13.40;99.90;;;;;;4973877;28;20053;-61
2023/12/21 12:19:28;;;;;;;3.35;0.75;;;13.40;99.90;;;;;;4974084;28;20504;-62
2023/12/21 12:21:55;;;;;;;3.00;0.90;;;13.40;99.90;;;;;;4972961;28;20066;-61
2023/12/21 12:24:22;;;;;;;4.07;1.02;;;13.50;99.90;;;;;;4972108;28;20195;-61
2023/12/21 12:26:49;;;;;;;3.55;0.70;;;13.50;99.90;;;;;;4972606;28;20490;-62
2023/12/21 12:29:19;;;;;;;2.55;0.80;;;13.50;99.90;;;;;;4973715;28;20448;-64
2023/12/21 12:31:46;;;;;;;4.38;0.95;;;13.60;99.90;;;;;;4972491;28;20474;-61
2023/12/21 12:34:13;;;;;;;3.38;0.98;;;13.60;99.90;;;;;;4972231;28;20035;-61
2023/12/21 12:36:40;;;;;;;4.05;1.02;;;13.50;99.90;;;;;;4973469;28;20055;-61
2023/12/21 12:39:07;;;;;;;3.38;0.93;;;13.50;99.90;;;;;;4976270;28;20050;-61
2023/12/21 12:41:35;;;;;;;5.70;1.23;;;13.50;99.90;;;;;;4977408;28;20564;-61
2023/12/21 12:44:02;;;;;;;4.82;1.10;;;13.40;99.90;;;;;;4976125;28;20047;-62